Terminal Aerodrome Forecast
Issued by NWS Twin Cities, MN

Home | Current Version | Previous Version | Text Only | Print | Product List | Glossary Off
Versions: 1 2 3 4 5 6 7 8 9 10 11 12 13 14 15

482
FTUS43 KMPX 281741
TAFEAU
TAF
KEAU 281741Z 2818/2918 02012G18KT P6SM BKN035
     FM290100 01006KT P6SM BKN050
     FM290600 04003KT P6SM SKC
      TEMPO 2908/2912 1 1/2SM BR BKN007
     FM291200 04005KT P6SM SKC=

USA.gov is the U.S. government's official web portal to all federal, state and local government web resources and services.